sensor_id;sensor_type;location;lat;lon;timestamp;P1;durP1;ratioP1;P2;durP2;ratioP2
12469;SDS011;36499;46.484;13.832;2022-07-29T00:01:07;5.57;;;4.63;;
12469;SDS011;36499;46.484;13.832;2022-07-29T00:03:35;4.83;;;4.43;;
12469;SDS011;36499;46.484;13.832;2022-07-29T00:06:02;6.47;;;4.30;;
12469;SDS011;36499;46.484;13.832;2022-07-29T00:08:29;4.77;;;4.27;;
12469;SDS011;36499;46.484;13.832;2022-07-29T00:10:56;4.97;;;4.57;;
12469;SDS011;36499;46.484;13.832;2022-07-29T00:13:23;4.87;;;4.47;;
12469;SDS011;36499;46.484;13.832;2022-07-29T00:15:50;5.77;;;5.17;;
12469;SDS011;36499;46.484;13.832;2022-07-29T00:18:19;6.70;;;5.33;;
12469;SDS011;36499;46.484;13.832;2022-07-29T00:20:46;7.30;;;5.37;;
12469;SDS011;36499;46.484;13.832;2022-07-29T00:23:13;6.57;;;5.20;;
12469;SDS011;36499;46.484;13.832;2022-07-29T00:25:40;5.20;;;4.80;;
12469;SDS011;36499;46.484;13.832;2022-07-29T00:28:07;6.63;;;4.87;;
12469;SDS011;36499;46.484;13.832;2022-07-29T00:30:34;5.27;;;4.80;;
12469;SDS011;36499;46.484;13.832;2022-07-29T00:33:02;6.03;;;5.50;;
12469;SDS011;36499;46.484;13.832;2022-07-29T00:35:30;5.67;;;5.17;;
12469;SDS011;36499;46.484;13.832;2022-07-29T00:38:08;5.80;;;5.13;;
12469;SDS011;36499;46.484;13.832;2022-07-29T00:40:36;4.93;;;4.53;;
12469;SDS011;36499;46.484;13.832;2022-07-29T00:43:03;6.60;;;4.30;;
12469;SDS011;36499;46.484;13.832;2022-07-29T00:45:31;5.30;;;4.80;;
12469;SDS011;36499;46.484;13.832;2022-07-29T00:47:58;4.93;;;4.50;;
12469;SDS011;36499;46.484;13.832;2022-07-29T00:50:25;4.83;;;4.40;;
12469;SDS011;36499;46.484;13.832;2022-07-29T00:52:54;5.50;;;4.50;;
12469;SDS011;36499;46.484;13.832;2022-07-29T00:55:22;5.23;;;4.80;;
12469;SDS011;36499;46.484;13.832;2022-07-29T00:57:50;4.97;;;4.57;;
12469;SDS011;36499;46.484;13.832;2022-07-29T01:00:19;5.43;;;4.93;;
12469;SDS011;36499;46.484;13.832;2022-07-29T01:02:49;5.17;;;4.67;;
12469;SDS011;36499;46.484;13.832;2022-07-29T01:05:18;6.47;;;4.97;;
12469;SDS011;36499;46.484;13.832;2022-07-29T01:07:48;5.70;;;5.17;;
12469;SDS011;36499;46.484;13.832;2022-07-29T01:10:21;6.93;;;5.40;;
12469;SDS011;36499;46.484;13.832;2022-07-29T01:12:51;6.03;;;5.37;;
12469;SDS011;36499;46.484;13.832;2022-07-29T01:15:21;6.33;;;5.13;;
12469;SDS011;36499;46.484;13.832;2022-07-29T01:17:50;5.93;;;5.33;;
12469;SDS011;36499;46.484;13.832;2022-07-29T01:20:30;7.80;;;5.57;;
12469;SDS011;36499;46.484;13.832;2022-07-29T01:23:32;6.00;;;5.40;;
12469;SDS011;36499;46.484;13.832;2022-07-29T01:26:33;7.47;;;5.10;;
12469;SDS011;36499;46.484;13.832;2022-07-29T01:29:26;5.60;;;5.10;;
12469;SDS011;36499;46.484;13.832;2022-07-29T01:31:56;5.93;;;5.17;;
12469;SDS011;36499;46.484;13.832;2022-07-29T01:34:31;5.23;;;4.73;;
12469;SDS011;36499;46.484;13.832;2022-07-29T01:37:15;5.40;;;4.90;;
12469;SDS011;36499;46.484;13.832;2022-07-29T01:40:01;6.80;;;5.40;;
12469;SDS011;36499;46.484;13.832;2022-07-29T01:42:50;5.40;;;4.90;;
12469;SDS011;36499;46.484;13.832;2022-07-29T01:45:24;6.53;;;4.70;;
12469;SDS011;36499;46.484;13.832;2022-07-29T01:48:03;5.00;;;4.60;;
12469;SDS011;36499;46.484;13.832;2022-07-29T01:50:40;4.90;;;4.40;;
12469;SDS011;36499;46.484;13.832;2022-07-29T01:53:15;5.57;;;4.60;;
12469;SDS011;36499;46.484;13.832;2022-07-29T01:55:53;5.00;;;4.50;;
12469;SDS011;36499;46.484;13.832;2022-07-29T01:58:26;5.33;;;4.83;;
12469;SDS011;36499;46.484;13.832;2022-07-29T02:00:57;6.93;;;4.73;;
12469;SDS011;36499;46.484;13.832;2022-07-29T02:03:27;5.07;;;4.63;;
12469;SDS011;36499;46.484;13.832;2022-07-29T02:05:58;5.67;;;4.80;;
12469;SDS011;36499;46.484;13.832;2022-07-29T02:08:29;5.60;;;4.90;;
12469;SDS011;36499;46.484;13.832;2022-07-29T02:10:59;5.97;;;4.53;;
12469;SDS011;36499;46.484;13.832;2022-07-29T02:13:38;5.87;;;5.37;;
12469;SDS011;36499;46.484;13.832;2022-07-29T02:16:13;5.23;;;4.73;;
12469;SDS011;36499;46.484;13.832;2022-07-29T02:18:45;5.00;;;4.60;;
12469;SDS011;36499;46.484;13.832;2022-07-29T02:21:16;7.07;;;4.90;;
12469;SDS011;36499;46.484;13.832;2022-07-29T02:23:54;5.43;;;4.93;;
12469;SDS011;36499;46.484;13.832;2022-07-29T02:26:25;5.57;;;4.87;;
12469;SDS011;36499;46.484;13.832;2022-07-29T02:28:56;5.03;;;4.63;;
12469;SDS011;36499;46.484;13.832;2022-07-29T02:31:28;5.73;;;5.13;;
12469;SDS011;36499;46.484;13.832;2022-07-29T02:34:00;6.40;;;5.13;;
12469;SDS011;36499;46.484;13.832;2022-07-29T02:36:31;5.97;;;4.80;;
12469;SDS011;36499;46.484;13.832;2022-07-29T02:39:00;5.30;;;4.80;;
12469;SDS011;36499;46.484;13.832;2022-07-29T02:41:40;5.40;;;4.97;;
12469;SDS011;36499;46.484;13.832;2022-07-29T02:44:12;5.70;;;5.20;;
12469;SDS011;36499;46.484;13.832;2022-07-29T02:46:57;5.10;;;4.63;;
12469;SDS011;36499;46.484;13.832;2022-07-29T02:49:35;5.20;;;4.50;;
12469;SDS011;36499;46.484;13.832;2022-07-29T02:52:08;5.07;;;4.67;;
12469;SDS011;36499;46.484;13.832;2022-07-29T02:54:49;5.67;;;5.17;;
12469;SDS011;36499;46.484;13.832;2022-07-29T02:57:22;5.33;;;4.40;;
12469;SDS011;36499;46.484;13.832;2022-07-29T03:00:00;5.27;;;4.83;;
12469;SDS011;36499;46.484;13.832;2022-07-29T03:02:35;7.27;;;5.40;;
12469;SDS011;36499;46.484;13.832;2022-07-29T03:05:07;6.30;;;5.00;;
12469;SDS011;36499;46.484;13.832;2022-07-29T03:07:41;5.40;;;4.90;;
12469;SDS011;36499;46.484;13.832;2022-07-29T03:10:13;5.33;;;4.83;;
12469;SDS011;36499;46.484;13.832;2022-07-29T03:12:41;5.07;;;4.60;;
12469;SDS011;36499;46.484;13.832;2022-07-29T03:15:10;5.97;;;4.67;;
12469;SDS011;36499;46.484;13.832;2022-07-29T03:17:40;6.10;;;5.00;;
12469;SDS011;36499;46.484;13.832;2022-07-29T03:20:08;5.40;;;4.90;;
12469;SDS011;36499;46.484;13.832;2022-07-29T03:22:39;6.73;;;5.20;;
12469;SDS011;36499;46.484;13.832;2022-07-29T03:25:09;5.83;;;5.27;;
12469;SDS011;36499;46.484;13.832;2022-07-29T03:27:37;6.87;;;4.90;;
12469;SDS011;36499;46.484;13.832;2022-07-29T03:30:04;4.77;;;4.37;;
12469;SDS011;36499;46.484;13.832;2022-07-29T03:32:33;5.17;;;4.67;;
12469;SDS011;36499;46.484;13.832;2022-07-29T03:35:03;5.53;;;5.07;;
12469;SDS011;36499;46.484;13.832;2022-07-29T03:37:31;5.30;;;4.80;;
12469;SDS011;36499;46.484;13.832;2022-07-29T03:40:02;5.47;;;4.90;;
12469;SDS011;36499;46.484;13.832;2022-07-29T03:42:35;5.67;;;5.17;;
12469;SDS011;36499;46.484;13.832;2022-07-29T03:45:09;5.97;;;5.27;;
12469;SDS011;36499;46.484;13.832;2022-07-29T03:47:42;5.90;;;5.20;;
12469;SDS011;36499;46.484;13.832;2022-07-29T03:50:17;7.47;;;6.07;;
12469;SDS011;36499;46.484;13.832;2022-07-29T03:52:47;7.30;;;6.60;;
12469;SDS011;36499;46.484;13.832;2022-07-29T03:55:15;6.70;;;6.07;;
12469;SDS011;36499;46.484;13.832;2022-07-29T03:57:43;7.43;;;6.07;;
12469;SDS011;36499;46.484;13.832;2022-07-29T04:00:12;7.43;;;5.83;;
12469;SDS011;36499;46.484;13.832;2022-07-29T04:02:41;5.90;;;5.40;;
12469;SDS011;36499;46.484;13.832;2022-07-29T04:05:13;6.13;;;5.60;;
12469;SDS011;36499;46.484;13.832;2022-07-29T04:07:43;6.17;;;5.60;;
12469;SDS011;36499;46.484;13.832;2022-07-29T04:10:11;6.20;;;5.70;;
12469;SDS011;36499;46.484;13.832;2022-07-29T04:12:40;5.70;;;5.20;;
12469;SDS011;36499;46.484;13.832;2022-07-29T04:15:08;6.50;;;5.57;;
12469;SDS011;36499;46.484;13.832;2022-07-29T04:17:36;6.33;;;5.50;;
12469;SDS011;36499;46.484;13.832;2022-07-29T04:20:04;9.40;;;6.13;;
12469;SDS011;36499;46.484;13.832;2022-07-29T04:22:33;5.90;;;5.40;;
12469;SDS011;36499;46.484;13.832;2022-07-29T04:25:00;5.53;;;4.80;;
12469;SDS011;36499;46.484;13.832;2022-07-29T04:27:28;5.07;;;4.67;;
12469;SDS011;36499;46.484;13.832;2022-07-29T04:29:55;4.80;;;4.40;;
12469;SDS011;36499;46.484;13.832;2022-07-29T04:32:22;5.03;;;4.13;;
12469;SDS011;36499;46.484;13.832;2022-07-29T04:34:49;5.70;;;4.33;;
12469;SDS011;36499;46.484;13.832;2022-07-29T04:37:16;5.13;;;4.40;;
12469;SDS011;36499;46.484;13.832;2022-07-29T04:39:45;4.97;;;4.57;;
12469;SDS011;36499;46.484;13.832;2022-07-29T04:42:13;7.47;;;4.60;;
12469;SDS011;36499;46.484;13.832;2022-07-29T04:44:40;5.77;;;4.70;;
12469;SDS011;36499;46.484;13.832;2022-07-29T04:47:08;7.93;;;5.00;;
12469;SDS011;36499;46.484;13.832;2022-07-29T04:49:37;5.13;;;4.43;;
12469;SDS011;36499;46.484;13.832;2022-07-29T04:52:04;6.87;;;4.57;;
12469;SDS011;36499;46.484;13.832;2022-07-29T04:54:32;6.70;;;4.93;;
12469;SDS011;36499;46.484;13.832;2022-07-29T04:57:00;5.03;;;4.57;;
12469;SDS011;36499;46.484;13.832;2022-07-29T04:59:27;6.27;;;4.40;;
12469;SDS011;36499;46.484;13.832;2022-07-29T05:01:54;7.67;;;4.93;;
12469;SDS011;36499;46.484;13.832;2022-07-29T05:04:22;4.70;;;4.30;;
12469;SDS011;36499;46.484;13.832;2022-07-29T05:06:49;4.57;;;3.90;;
12469;SDS011;36499;46.484;13.832;2022-07-29T05:09:16;3.83;;;3.47;;
12469;SDS011;36499;46.484;13.832;2022-07-29T05:11:43;5.40;;;3.87;;
12469;SDS011;36499;46.484;13.832;2022-07-29T05:14:11;4.37;;;3.97;;
12469;SDS011;36499;46.484;13.832;2022-07-29T05:16:38;3.73;;;3.43;;
12469;SDS011;36499;46.484;13.832;2022-07-29T05:19:06;3.87;;;3.43;;
12469;SDS011;36499;46.484;13.832;2022-07-29T05:21:34;3.73;;;3.43;;
12469;SDS011;36499;46.484;13.832;2022-07-29T05:24:01;4.17;;;3.73;;
12469;SDS011;36499;46.484;13.832;2022-07-29T05:26:28;3.50;;;3.20;;
12469;SDS011;36499;46.484;13.832;2022-07-29T05:28:55;4.00;;;3.40;;
12469;SDS011;36499;46.484;13.832;2022-07-29T05:31:24;5.30;;;3.50;;
12469;SDS011;36499;46.484;13.832;2022-07-29T05:33:51;3.47;;;3.17;;
12469;SDS011;36499;46.484;13.832;2022-07-29T05:36:19;3.83;;;3.50;;
12469;SDS011;36499;46.484;13.832;2022-07-29T05:38:46;3.67;;;3.07;;
12469;SDS011;36499;46.484;13.832;2022-07-29T05:41:13;3.60;;;3.30;;
12469;SDS011;36499;46.484;13.832;2022-07-29T05:43:40;3.37;;;3.07;;
12469;SDS011;36499;46.484;13.832;2022-07-29T05:46:07;3.40;;;3.10;;
12469;SDS011;36499;46.484;13.832;2022-07-29T05:48:36;3.73;;;3.43;;
12469;SDS011;36499;46.484;13.832;2022-07-29T05:51:03;5.27;;;3.20;;
12469;SDS011;36499;46.484;13.832;2022-07-29T05:53:31;3.17;;;2.87;;
12469;SDS011;36499;46.484;13.832;2022-07-29T05:55:58;3.40;;;2.93;;
12469;SDS011;36499;46.484;13.832;2022-07-29T05:58:30;5.20;;;3.17;;
12469;SDS011;36499;46.484;13.832;2022-07-29T06:00:58;4.27;;;3.47;;
12469;SDS011;36499;46.484;13.832;2022-07-29T06:03:25;3.93;;;2.97;;
12469;SDS011;36499;46.484;13.832;2022-07-29T06:05:54;3.57;;;3.27;;
12469;SDS011;36499;46.484;13.832;2022-07-29T06:08:21;4.40;;;2.87;;
12469;SDS011;36499;46.484;13.832;2022-07-29T06:10:48;3.50;;;3.20;;
12469;SDS011;36499;46.484;13.832;2022-07-29T06:13:15;4.93;;;3.27;;
12469;SDS011;36499;46.484;13.832;2022-07-29T06:15:42;2.80;;;2.60;;
12469;SDS011;36499;46.484;13.832;2022-07-29T06:18:10;9.73;;;3.10;;
12469;SDS011;36499;46.484;13.832;2022-07-29T06:20:38;3.87;;;3.10;;
12469;SDS011;36499;46.484;13.832;2022-07-29T06:23:06;5.20;;;2.77;;
12469;SDS011;36499;46.484;13.832;2022-07-29T06:25:34;3.70;;;3.07;;
12469;SDS011;36499;46.484;13.832;2022-07-29T06:28:02;8.00;;;3.10;;
12469;SDS011;36499;46.484;13.832;2022-07-29T06:30:30;3.70;;;3.10;;
12469;SDS011;36499;46.484;13.832;2022-07-29T06:32:57;3.67;;;2.57;;
12469;SDS011;36499;46.484;13.832;2022-07-29T06:35:25;3.30;;;3.00;;
12469;SDS011;36499;46.484;13.832;2022-07-29T06:37:52;4.63;;;3.03;;
12469;SDS011;36499;46.484;13.832;2022-07-29T06:40:21;3.50;;;3.20;;
12469;SDS011;36499;46.484;13.832;2022-07-29T06:43:06;3.17;;;2.87;;
12469;SDS011;36499;46.484;13.832;2022-07-29T06:45:33;3.20;;;2.87;;
12469;SDS011;36499;46.484;13.832;2022-07-29T06:48:01;2.57;;;2.37;;
12469;SDS011;36499;46.484;13.832;2022-07-29T06:50:28;3.13;;;2.83;;
12469;SDS011;36499;46.484;13.832;2022-07-29T06:52:55;3.03;;;2.60;;
12469;SDS011;36499;46.484;13.832;2022-07-29T06:55:24;4.17;;;2.53;;
12469;SDS011;36499;46.484;13.832;2022-07-29T06:57:51;3.20;;;2.90;;
12469;SDS011;36499;46.484;13.832;2022-07-29T07:00:18;3.03;;;2.43;;
12469;SDS011;36499;46.484;13.832;2022-07-29T07:02:46;2.37;;;2.17;;
12469;SDS011;36499;46.484;13.832;2022-07-29T07:05:13;3.17;;;2.70;;
12469;SDS011;36499;46.484;13.832;2022-07-29T07:07:40;2.80;;;2.60;;
12469;SDS011;36499;46.484;13.832;2022-07-29T07:10:07;3.50;;;2.63;;
12469;SDS011;36499;46.484;13.832;2022-07-29T07:12:36;3.93;;;3.00;;
12469;SDS011;36499;46.484;13.832;2022-07-29T07:15:04;2.70;;;2.50;;
12469;SDS011;36499;46.484;13.832;2022-07-29T07:17:32;3.97;;;2.20;;
12469;SDS011;36499;46.484;13.832;2022-07-29T07:19:59;2.70;;;2.50;;
12469;SDS011;36499;46.484;13.832;2022-07-29T07:22:27;2.70;;;2.50;;
12469;SDS011;36499;46.484;13.832;2022-07-29T07:24:54;3.33;;;2.40;;
12469;SDS011;36499;46.484;13.832;2022-07-29T07:27:21;2.43;;;2.20;;
12469;SDS011;36499;46.484;13.832;2022-07-29T07:29:49;2.57;;;2.37;;
12469;SDS011;36499;46.484;13.832;2022-07-29T07:32:16;2.77;;;2.30;;
12469;SDS011;36499;46.484;13.832;2022-07-29T07:34:44;4.63;;;2.50;;
12469;SDS011;36499;46.484;13.832;2022-07-29T07:37:11;2.53;;;2.33;;
12469;SDS011;36499;46.484;13.832;2022-07-29T07:39:39;2.90;;;2.10;;
12469;SDS011;36499;46.484;13.832;2022-07-29T07:42:06;2.97;;;2.37;;
12469;SDS011;36499;46.484;13.832;2022-07-29T07:44:35;3.73;;;2.60;;
12469;SDS011;36499;46.484;13.832;2022-07-29T07:47:03;2.50;;;2.30;;
12469;SDS011;36499;46.484;13.832;2022-07-29T07:49:31;4.07;;;2.50;;
12469;SDS011;36499;46.484;13.832;2022-07-29T07:51:58;2.60;;;2.40;;
12469;SDS011;36499;46.484;13.832;2022-07-29T07:54:25;3.00;;;2.40;;
12469;SDS011;36499;46.484;13.832;2022-07-29T07:56:53;2.40;;;2.20;;
12469;SDS011;36499;46.484;13.832;2022-07-29T07:59:20;2.10;;;2.00;;
12469;SDS011;36499;46.484;13.832;2022-07-29T08:01:47;2.40;;;2.20;;
12469;SDS011;36499;46.484;13.832;2022-07-29T08:04:17;2.40;;;2.17;;
12469;SDS011;36499;46.484;13.832;2022-07-29T08:06:44;2.53;;;2.33;;
12469;SDS011;36499;46.484;13.832;2022-07-29T08:09:11;4.13;;;2.30;;
12469;SDS011;36499;46.484;13.832;2022-07-29T08:11:39;2.67;;;2.47;;
12469;SDS011;36499;46.484;13.832;2022-07-29T08:14:06;2.10;;;2.00;;
12469;SDS011;36499;46.484;13.832;2022-07-29T08:16:33;2.30;;;2.10;;
12469;SDS011;36499;46.484;13.832;2022-07-29T08:19:00;2.23;;;2.03;;
12469;SDS011;36499;46.484;13.832;2022-07-29T08:21:29;2.73;;;2.23;;
12469;SDS011;36499;46.484;13.832;2022-07-29T08:23:56;6.57;;;2.70;;
12469;SDS011;36499;46.484;13.832;2022-07-29T08:26:37;2.40;;;2.20;;
12469;SDS011;36499;46.484;13.832;2022-07-29T08:29:04;2.37;;;2.17;;
12469;SDS011;36499;46.484;13.832;2022-07-29T08:31:31;2.30;;;2.10;;
12469;SDS011;36499;46.484;13.832;2022-07-29T08:33:58;3.10;;;2.13;;
12469;SDS011;36499;46.484;13.832;2022-07-29T08:36:25;3.40;;;2.10;;
12469;SDS011;36499;46.484;13.832;2022-07-29T08:38:54;2.50;;;2.30;;
12469;SDS011;36499;46.484;13.832;2022-07-29T08:41:21;3.47;;;2.40;;
12469;SDS011;36499;46.484;13.832;2022-07-29T08:43:49;3.60;;;2.73;;
12469;SDS011;36499;46.484;13.832;2022-07-29T08:46:17;2.60;;;2.40;;
12469;SDS011;36499;46.484;13.832;2022-07-29T08:48:45;4.83;;;2.90;;
12469;SDS011;36499;46.484;13.832;2022-07-29T08:51:13;2.83;;;2.23;;
12469;SDS011;36499;46.484;13.832;2022-07-29T08:53:43;2.23;;;2.03;;
12469;SDS011;36499;46.484;13.832;2022-07-29T08:56:14;2.77;;;2.37;;
12469;SDS011;36499;46.484;13.832;2022-07-29T08:58:43;6.10;;;2.70;;
12469;SDS011;36499;46.484;13.832;2022-07-29T09:01:13;2.60;;;2.40;;
12469;SDS011;36499;46.484;13.832;2022-07-29T09:03:44;2.50;;;2.30;;
12469;SDS011;36499;46.484;13.832;2022-07-29T09:06:12;5.13;;;2.50;;
12469;SDS011;36499;46.484;13.832;2022-07-29T09:08:41;2.53;;;2.30;;
12469;SDS011;36499;46.484;13.832;2022-07-29T09:11:08;3.27;;;2.30;;
12469;SDS011;36499;46.484;13.832;2022-07-29T09:13:37;2.60;;;2.40;;
12469;SDS011;36499;46.484;13.832;2022-07-29T09:16:05;2.63;;;2.40;;
12469;SDS011;36499;46.484;13.832;2022-07-29T09:18:33;2.83;;;2.33;;
12469;SDS011;36499;46.484;13.832;2022-07-29T09:21:02;2.50;;;2.30;;
12469;SDS011;36499;46.484;13.832;2022-07-29T09:24:02;4.57;;;2.57;;
12469;SDS011;36499;46.484;13.832;2022-07-29T09:26:34;2.60;;;2.40;;
12469;SDS011;36499;46.484;13.832;2022-07-29T09:29:10;2.70;;;2.43;;
12469;SDS011;36499;46.484;13.832;2022-07-29T09:31:41;3.10;;;2.67;;
12469;SDS011;36499;46.484;13.832;2022-07-29T09:34:11;2.80;;;2.60;;
12469;SDS011;36499;46.484;13.832;2022-07-29T09:36:41;3.20;;;2.63;;
12469;SDS011;36499;46.484;13.832;2022-07-29T09:39:10;2.53;;;2.30;;
12469;SDS011;36499;46.484;13.832;2022-07-29T09:41:44;3.20;;;2.90;;
12469;SDS011;36499;46.484;13.832;2022-07-29T09:44:15;4.63;;;2.90;;
12469;SDS011;36499;46.484;13.832;2022-07-29T09:46:53;2.90;;;2.70;;
12469;SDS011;36499;46.484;13.832;2022-07-29T09:49:31;5.17;;;3.20;;
12469;SDS011;36499;46.484;13.832;2022-07-29T09:51:59;3.53;;;2.90;;
12469;SDS011;36499;46.484;13.832;2022-07-29T09:54:30;4.00;;;3.10;;
12469;SDS011;36499;46.484;13.832;2022-07-29T09:57:01;3.13;;;2.80;;
12469;SDS011;36499;46.484;13.832;2022-07-29T09:59:31;4.13;;;3.20;;
12469;SDS011;36499;46.484;13.832;2022-07-29T10:01:59;3.00;;;2.80;;
12469;SDS011;36499;46.484;13.832;2022-07-29T10:04:37;3.60;;;3.30;;
12469;SDS011;36499;46.484;13.832;2022-07-29T10:07:07;3.30;;;3.00;;
12469;SDS011;36499;46.484;13.832;2022-07-29T10:09:35;3.40;;;3.10;;
12469;SDS011;36499;46.484;13.832;2022-07-29T10:12:03;3.43;;;3.10;;
12469;SDS011;36499;46.484;13.832;2022-07-29T10:14:37;3.20;;;2.90;;
12469;SDS011;36499;46.484;13.832;2022-07-29T10:17:05;4.13;;;2.97;;
12469;SDS011;36499;46.484;13.832;2022-07-29T10:19:33;3.30;;;3.00;;
12469;SDS011;36499;46.484;13.832;2022-07-29T10:22:03;6.13;;;3.80;;
12469;SDS011;36499;46.484;13.832;2022-07-29T10:24:33;4.20;;;3.40;;
12469;SDS011;36499;46.484;13.832;2022-07-29T10:27:02;3.70;;;3.40;;
12469;SDS011;36499;46.484;13.832;2022-07-29T10:29:31;5.53;;;3.27;;
12469;SDS011;36499;46.484;13.832;2022-07-29T10:32:14;5.23;;;3.60;;
12469;SDS011;36499;46.484;13.832;2022-07-29T10:35:00;3.83;;;3.23;;
12469;SDS011;36499;46.484;13.832;2022-07-29T10:37:53;4.20;;;3.53;;
12469;SDS011;36499;46.484;13.832;2022-07-29T10:41:03;3.60;;;2.83;;
12469;SDS011;36499;46.484;13.832;2022-07-29T10:44:03;4.40;;;3.27;;
12469;SDS011;36499;46.484;13.832;2022-07-29T10:46:39;4.27;;;3.23;;
12469;SDS011;36499;46.484;13.832;2022-07-29T10:49:10;4.50;;;3.47;;
12469;SDS011;36499;46.484;13.832;2022-07-29T10:51:52;4.50;;;3.67;;
12469;SDS011;36499;46.484;13.832;2022-07-29T10:57:17;3.50;;;3.20;;
12469;SDS011;36499;46.484;13.832;2022-07-29T11:02:56;3.73;;;3.43;;
12469;SDS011;36499;46.484;13.832;2022-07-29T11:05:25;6.40;;;3.23;;
12469;SDS011;36499;46.484;13.832;2022-07-29T11:10:48;4.00;;;3.43;;
12469;SDS011;36499;46.484;13.832;2022-07-29T11:16:18;5.77;;;3.30;;
12469;SDS011;36499;46.484;13.832;2022-07-29T11:21:49;4.47;;;3.60;;
12469;SDS011;36499;46.484;13.832;2022-07-29T11:24:18;3.70;;;3.40;;
12469;SDS011;36499;46.484;13.832;2022-07-29T11:27:08;3.63;;;2.97;;
12469;SDS011;36499;46.484;13.832;2022-07-29T11:29:47;4.03;;;3.37;;
12469;SDS011;36499;46.484;13.832;2022-07-29T11:32:19;4.00;;;3.60;;
12469;SDS011;36499;46.484;13.832;2022-07-29T11:34:48;3.77;;;3.47;;
12469;SDS011;36499;46.484;13.832;2022-07-29T11:37:37;4.57;;;4.00;;
12469;SDS011;36499;46.484;13.832;2022-07-29T11:40:09;3.73;;;3.43;;
12469;SDS011;36499;46.484;13.832;2022-07-29T11:42:45;3.70;;;3.40;;
12469;SDS011;36499;46.484;13.832;2022-07-29T11:45:14;3.97;;;3.57;;
12469;SDS011;36499;46.484;13.832;2022-07-29T11:47:54;6.63;;;3.50;;
12469;SDS011;36499;46.484;13.832;2022-07-29T11:50:27;4.17;;;3.77;;
12469;SDS011;36499;46.484;13.832;2022-07-29T11:53:00;4.30;;;3.20;;
12469;SDS011;36499;46.484;13.832;2022-07-29T11:55:38;3.83;;;3.53;;
12469;SDS011;36499;46.484;13.832;2022-07-29T11:58:06;5.47;;;3.50;;
12469;SDS011;36499;46.484;13.832;2022-07-29T12:00:34;4.60;;;3.50;;
12469;SDS011;36499;46.484;13.832;2022-07-29T12:03:05;4.97;;;3.53;;
12469;SDS011;36499;46.484;13.832;2022-07-29T12:05:35;5.30;;;3.90;;
12469;SDS011;36499;46.484;13.832;2022-07-29T12:08:08;3.80;;;3.50;;
12469;SDS011;36499;46.484;13.832;2022-07-29T12:10:39;3.57;;;3.30;;
12469;SDS011;36499;46.484;13.832;2022-07-29T12:13:08;3.70;;;3.40;;
12469;SDS011;36499;46.484;13.832;2022-07-29T12:15:36;4.83;;;3.50;;
12469;SDS011;36499;46.484;13.832;2022-07-29T12:18:11;4.63;;;3.30;;
12469;SDS011;36499;46.484;13.832;2022-07-29T12:20:40;5.93;;;3.77;;
12469;SDS011;36499;46.484;13.832;2022-07-29T12:23:10;4.07;;;3.67;;
12469;SDS011;36499;46.484;13.832;2022-07-29T12:25:38;5.07;;;3.17;;
12469;SDS011;36499;46.484;13.832;2022-07-29T12:28:10;4.37;;;3.73;;
12469;SDS011;36499;46.484;13.832;2022-07-29T12:31:58;3.90;;;3.50;;
12469;SDS011;36499;46.484;13.832;2022-07-29T12:34:26;4.33;;;3.40;;
12469;SDS011;36499;46.484;13.832;2022-07-29T12:36:54;3.90;;;3.60;;
12469;SDS011;36499;46.484;13.832;2022-07-29T12:39:23;3.93;;;3.57;;
12469;SDS011;36499;46.484;13.832;2022-07-29T12:41:53;6.47;;;3.90;;
12469;SDS011;36499;46.484;13.832;2022-07-29T12:44:20;5.53;;;3.80;;
12469;SDS011;36499;46.484;13.832;2022-07-29T12:47:00;4.93;;;3.67;;
12469;SDS011;36499;46.484;13.832;2022-07-29T12:49:28;5.00;;;3.40;;
12469;SDS011;36499;46.484;13.832;2022-07-29T12:51:56;3.87;;;3.53;;
12469;SDS011;36499;46.484;13.832;2022-07-29T12:54:24;3.83;;;3.30;;
12469;SDS011;36499;46.484;13.832;2022-07-29T12:56:57;4.00;;;3.70;;
12469;SDS011;36499;46.484;13.832;2022-07-29T12:59:25;6.50;;;3.60;;
12469;SDS011;36499;46.484;13.832;2022-07-29T13:01:52;3.80;;;3.50;;
12469;SDS011;36499;46.484;13.832;2022-07-29T13:04:26;3.73;;;3.40;;
12469;SDS011;36499;46.484;13.832;2022-07-29T13:06:58;5.63;;;3.63;;
12469;SDS011;36499;46.484;13.832;2022-07-29T13:09:37;3.60;;;3.30;;
12469;SDS011;36499;46.484;13.832;2022-07-29T13:12:06;4.33;;;3.40;;
12469;SDS011;36499;46.484;13.832;2022-07-29T13:14:35;4.10;;;3.57;;
12469;SDS011;36499;46.484;13.832;2022-07-29T13:17:05;3.90;;;3.57;;
12469;SDS011;36499;46.484;13.832;2022-07-29T13:19:35;4.07;;;3.73;;
12469;SDS011;36499;46.484;13.832;2022-07-29T13:22:05;3.60;;;3.30;;
12469;SDS011;36499;46.484;13.832;2022-07-29T13:24:32;4.10;;;3.70;;
12469;SDS011;36499;46.484;13.832;2022-07-29T13:27:01;4.37;;;3.43;;
12469;SDS011;36499;46.484;13.832;2022-07-29T13:29:29;4.90;;;3.70;;
12469;SDS011;36499;46.484;13.832;2022-07-29T13:31:56;3.77;;;3.47;;
12469;SDS011;36499;46.484;13.832;2022-07-29T13:34:23;3.90;;;3.53;;
12469;SDS011;36499;46.484;13.832;2022-07-29T13:36:50;4.13;;;3.50;;
12469;SDS011;36499;46.484;13.832;2022-07-29T13:39:17;5.33;;;3.57;;
12469;SDS011;36499;46.484;13.832;2022-07-29T13:41:44;4.30;;;3.50;;
12469;SDS011;36499;46.484;13.832;2022-07-29T13:44:13;4.13;;;3.67;;
12469;SDS011;36499;46.484;13.832;2022-07-29T13:46:40;3.83;;;3.50;;
12469;SDS011;36499;46.484;13.832;2022-07-29T13:49:07;4.93;;;3.70;;
12469;SDS011;36499;46.484;13.832;2022-07-29T13:51:36;4.23;;;3.40;;
12469;SDS011;36499;46.484;13.832;2022-07-29T13:54:03;5.93;;;3.30;;
12469;SDS011;36499;46.484;13.832;2022-07-29T13:56:31;6.13;;;3.40;;
12469;SDS011;36499;46.484;13.832;2022-07-29T13:58:59;5.60;;;3.30;;
12469;SDS011;36499;46.484;13.832;2022-07-29T14:01:27;5.47;;;3.53;;
12469;SDS011;36499;46.484;13.832;2022-07-29T14:03:55;4.17;;;3.30;;
12469;SDS011;36499;46.484;13.832;2022-07-29T14:06:22;3.50;;;3.20;;
12469;SDS011;36499;46.484;13.832;2022-07-29T14:08:49;3.90;;;3.37;;
12469;SDS011;36499;46.484;13.832;2022-07-29T14:11:16;4.63;;;3.23;;
12469;SDS011;36499;46.484;13.832;2022-07-29T14:13:43;3.67;;;3.37;;
12469;SDS011;36499;46.484;13.832;2022-07-29T14:16:11;4.93;;;3.47;;
12469;SDS011;36499;46.484;13.832;2022-07-29T14:18:39;3.47;;;3.13;;
12469;SDS011;36499;46.484;13.832;2022-07-29T14:21:07;3.77;;;3.37;;
12469;SDS011;36499;46.484;13.832;2022-07-29T14:23:34;5.50;;;3.37;;
12469;SDS011;36499;46.484;13.832;2022-07-29T14:26:02;4.93;;;3.30;;
12469;SDS011;36499;46.484;13.832;2022-07-29T14:28:29;4.83;;;3.70;;
12469;SDS011;36499;46.484;13.832;2022-07-29T14:30:57;4.00;;;3.27;;
12469;SDS011;36499;46.484;13.832;2022-07-29T14:33:24;4.20;;;3.43;;
12469;SDS011;36499;46.484;13.832;2022-07-29T14:35:52;4.53;;;3.53;;
12469;SDS011;36499;46.484;13.832;2022-07-29T14:38:19;5.83;;;3.60;;
12469;SDS011;36499;46.484;13.832;2022-07-29T14:40:47;4.20;;;3.80;;
12469;SDS011;36499;46.484;13.832;2022-07-29T14:43:14;4.57;;;3.70;;
12469;SDS011;36499;46.484;13.832;2022-07-29T14:45:41;3.67;;;3.30;;
12469;SDS011;36499;46.484;13.832;2022-07-29T14:48:08;3.70;;;3.40;;
12469;SDS011;36499;46.484;13.832;2022-07-29T14:50:36;3.80;;;3.50;;
12469;SDS011;36499;46.484;13.832;2022-07-29T14:53:05;4.47;;;3.57;;
12469;SDS011;36499;46.484;13.832;2022-07-29T14:55:32;6.13;;;3.60;;
12469;SDS011;36499;46.484;13.832;2022-07-29T14:57:59;3.53;;;3.23;;
12469;SDS011;36499;46.484;13.832;2022-07-29T15:00:26;4.03;;;3.53;;
12469;SDS011;36499;46.484;13.832;2022-07-29T15:02:57;4.57;;;3.63;;
12469;SDS011;36499;46.484;13.832;2022-07-29T15:05:24;3.50;;;3.20;;
12469;SDS011;36499;46.484;13.832;2022-07-29T15:07:51;6.10;;;3.63;;